Bergondo, Spain
Current Conditions -  °F | °C
As of 10:30 PM on Thursday 18 Dec 2014 (Local Time) from LECO Reporting Station
Broken Clouds Broken Clouds  
Wind Chill: 54°   Ceiling: 2800
Heat Index: 54°   Visibility: 6mi
Dew Point: 46°   Wind: 3mph
Humidity: 77%   Direction: 240°WSW
Pressure: 30.48"   Gusts: NA
Location:  43.32°N, 8.23°W
Report Text: LECO 182130Z 24003KT 190V290 9999 FEW025 BKN028 12/08 Q1032 NOSIG
Loading
Personal Weather Stations






























Interactive Weather Map New forecast layout! Learn more

10-Day Weather Forecast

Advertisements
Track Severe Weather on mobile